createdAt,value
2018-12-23T00:01:01.406Z,3.27
2018-12-23T00:03:28.959Z,2.40
2018-12-23T00:05:56.519Z,3.50
2018-12-23T00:08:24.074Z,3.40
2018-12-23T00:10:51.644Z,2.77
2018-12-23T00:13:19.198Z,2.60
2018-12-23T00:15:46.754Z,4.43
2018-12-23T00:18:14.311Z,2.53
2018-12-23T00:20:41.880Z,2.90
2018-12-23T00:23:09.443Z,3.60
2018-12-23T00:25:36.996Z,3.20
2018-12-23T00:28:04.556Z,3.53
2018-12-23T00:30:32.124Z,3.23
2018-12-23T00:32:59.676Z,2.93
2018-12-23T00:35:27.232Z,3.43
2018-12-23T00:37:54.789Z,3.23
2018-12-23T00:40:22.350Z,3.50
2018-12-23T00:42:51.450Z,3.70
2018-12-23T00:45:19.006Z,3.83
2018-12-23T00:47:46.559Z,4.13
2018-12-23T00:50:14.119Z,3.47
2018-12-23T00:52:41.670Z,4.20
2018-12-23T00:55:09.220Z,4.47
2018-12-23T00:57:36.776Z,4.40
2018-12-23T01:00:04.509Z,4.50
2018-12-23T01:02:32.055Z,3.70
2018-12-23T01:04:59.612Z,4.40
2018-12-23T01:07:27.172Z,4.10
2018-12-23T01:09:54.723Z,3.83
2018-12-23T01:12:22.304Z,4.37
2018-12-23T01:14:49.867Z,4.87
2018-12-23T01:17:17.419Z,5.30
2018-12-23T01:19:44.980Z,3.77
2018-12-23T01:22:12.535Z,4.30
2018-12-23T01:24:41.023Z,4.50
2018-12-23T01:27:08.579Z,4.63
2018-12-23T01:29:36.148Z,4.03
2018-12-23T01:32:03.708Z,3.90
2018-12-23T01:34:37.062Z,4.50
2018-12-23T01:37:01.348Z,5.23
2018-12-23T01:39:31.468Z,4.33
2018-12-23T01:41:59.017Z,4.53
2018-12-23T01:44:27.032Z,3.60
2018-12-23T01:46:54.611Z,5.10
2018-12-23T01:49:22.175Z,4.10
2018-12-23T01:51:49.736Z,4.33
2018-12-23T01:54:17.283Z,4.70
2018-12-23T01:56:44.836Z,4.57
2018-12-23T01:59:12.383Z,4.13
2018-12-23T02:01:39.928Z,4.33
2018-12-23T02:04:07.476Z,4.20
2018-12-23T02:06:35.032Z,4.60
2018-12-23T02:09:02.584Z,4.37
2018-12-23T02:11:30.144Z,4.63
2018-12-23T02:13:57.805Z,5.00
2018-12-23T02:16:25.471Z,4.40
2018-12-23T02:18:53.539Z,3.60
2018-12-23T02:21:21.084Z,4.20
2018-12-23T02:23:48.644Z,4.33
2018-12-23T02:26:16.204Z,5.20
2018-12-23T02:28:43.754Z,4.80
2018-12-23T02:31:11.309Z,4.10
2018-12-23T02:33:38.865Z,4.50
2018-12-23T02:36:07.144Z,5.40
2018-12-23T02:38:34.699Z,4.37
2018-12-23T02:41:02.252Z,4.20
2018-12-23T02:43:30.531Z,3.93
2018-12-23T02:45:59.076Z,4.03
2018-12-23T02:48:26.642Z,3.87
2018-12-23T02:50:54.203Z,4.20
2018-12-23T02:53:21.768Z,4.30
2018-12-23T02:55:49.637Z,4.17
2018-12-23T02:58:17.191Z,5.13
2018-12-23T03:00:44.744Z,3.67
2018-12-23T03:03:12.307Z,3.83
2018-12-23T03:05:39.865Z,3.63
2018-12-23T03:08:07.419Z,4.77
2018-12-23T03:10:35.090Z,4.27
2018-12-23T03:13:02.654Z,4.13
2018-12-23T03:15:30.209Z,4.03
2018-12-23T03:17:57.775Z,3.70
2018-12-23T03:20:25.336Z,4.03
2018-12-23T03:22:52.891Z,4.27
2018-12-23T03:25:20.872Z,3.80
2018-12-23T03:27:48.433Z,4.07
2018-12-23T03:30:15.981Z,4.57
2018-12-23T03:32:43.558Z,4.90
2018-12-23T03:35:11.217Z,4.30
2018-12-23T03:37:38.772Z,4.43
2018-12-23T03:40:06.334Z,3.80
2018-12-23T03:42:33.892Z,4.83
2018-12-23T03:45:02.068Z,4.50
2018-12-23T03:47:29.628Z,4.13
2018-12-23T03:49:57.188Z,3.63
2018-12-23T03:52:24.753Z,4.80
2018-12-23T03:54:52.450Z,4.50
2018-12-23T03:57:20.008Z,4.03
2018-12-23T03:59:47.561Z,4.07
2018-12-23T04:02:15.127Z,4.70
2018-12-23T04:04:42.684Z,4.13
2018-12-23T04:07:10.243Z,3.93
2018-12-23T04:09:37.816Z,3.60
2018-12-23T04:12:05.367Z,3.67
2018-12-23T04:14:32.916Z,3.80
2018-12-23T04:17:00.481Z,4.30
2018-12-23T04:19:28.044Z,5.13
2018-12-23T04:21:55.595Z,5.23
2018-12-23T04:24:23.156Z,3.73
2018-12-23T04:26:51.140Z,4.50
2018-12-23T04:29:18.697Z,3.80
2018-12-23T04:31:46.248Z,4.50
2018-12-23T04:34:13.804Z,3.90
2018-12-23T04:36:41.362Z,4.23
2018-12-23T04:39:08.941Z,3.97
2018-12-23T04:41:36.494Z,3.87
2018-12-23T04:44:04.053Z,3.50
2018-12-23T04:46:31.609Z,3.60
2018-12-23T04:48:59.159Z,3.67
2018-12-23T04:51:26.709Z,4.00
2018-12-23T04:53:55.278Z,4.43
2018-12-23T04:56:22.844Z,4.17
2018-12-23T04:58:51.122Z,4.00
2018-12-23T05:01:18.938Z,5.33
2018-12-23T05:03:46.492Z,4.83
2018-12-23T05:06:14.043Z,4.70
2018-12-23T05:08:41.600Z,3.93
2018-12-23T05:11:09.152Z,5.73
2018-12-23T05:13:36.706Z,4.10
2018-12-23T05:16:04.525Z,4.40
2018-12-23T05:18:32.075Z,4.60
2018-12-23T05:20:59.628Z,4.23
2018-12-23T05:23:27.176Z,5.27
2018-12-23T05:25:54.742Z,5.13
2018-12-23T05:28:22.299Z,4.60
2018-12-23T05:30:50.412Z,4.43
2018-12-23T05:33:17.968Z,3.90
2018-12-23T05:35:45.528Z,5.53
2018-12-23T05:38:13.091Z,4.77
2018-12-23T05:40:40.647Z,5.60
2018-12-23T05:43:08.209Z,5.20
2018-12-23T05:45:36.123Z,5.60
2018-12-23T05:48:03.675Z,6.10
2018-12-23T05:50:31.232Z,5.33
2018-12-23T05:52:58.815Z,5.47
2018-12-23T05:55:26.348Z,5.33
2018-12-23T05:57:53.897Z,6.17
2018-12-23T06:00:21.748Z,5.53
2018-12-23T06:02:49.302Z,7.10
2018-12-23T06:05:16.862Z,6.10
2018-12-23T06:07:44.624Z,5.93
2018-12-23T06:10:12.182Z,6.23
2018-12-23T06:12:39.731Z,5.83
2018-12-23T06:15:07.290Z,5.70
2018-12-23T06:17:34.847Z,7.17
2018-12-23T06:20:02.407Z,6.03
2018-12-23T06:22:29.959Z,6.57
2018-12-23T06:24:57.519Z,6.40
2018-12-23T06:27:25.072Z,6.53
2018-12-23T06:29:52.744Z,6.20
2018-12-23T06:32:20.304Z,7.27
2018-12-23T06:34:48.534Z,5.57
2018-12-23T06:37:16.103Z,6.80
2018-12-23T06:39:43.655Z,5.83
2018-12-23T06:42:11.207Z,6.07
2018-12-23T06:44:38.867Z,6.47
2018-12-23T06:47:06.448Z,6.67
2018-12-23T06:49:34.004Z,6.33
2018-12-23T06:52:01.875Z,6.73
2018-12-23T06:54:29.436Z,6.13
2018-12-23T06:56:57.300Z,6.33
2018-12-23T06:59:24.881Z,6.33
2018-12-23T07:01:52.432Z,6.87
2018-12-23T07:04:19.984Z,6.30
2018-12-23T07:06:47.868Z,6.97
2018-12-23T07:09:15.421Z,6.47
2018-12-23T07:11:42.972Z,6.80
2018-12-23T07:14:10.528Z,7.28
2018-12-23T07:16:38.086Z,6.17
2018-12-23T07:19:05.639Z,6.83
2018-12-23T07:21:33.195Z,6.23
2018-12-23T07:24:00.747Z,6.63
2018-12-23T07:26:28.304Z,5.70
2018-12-23T07:28:55.861Z,6.40
2018-12-23T07:31:23.423Z,5.10
2018-12-23T07:33:50.975Z,7.57
2018-12-23T07:36:18.530Z,5.20
2018-12-23T07:38:46.081Z,5.30
2018-12-23T07:41:13.630Z,7.93
2018-12-23T07:43:41.196Z,7.17
2018-12-23T07:46:08.757Z,8.43
2018-12-23T07:48:36.315Z,7.60
2018-12-23T07:51:03.884Z,7.90
2018-12-23T07:53:31.438Z,7.30
2018-12-23T07:55:59.462Z,9.20
2018-12-23T07:58:27.364Z,8.43
2018-12-23T08:00:54.919Z,9.80
2018-12-23T08:03:22.472Z,7.80
2018-12-23T08:05:50.031Z,9.37
2018-12-23T08:08:17.578Z,9.20
2018-12-23T08:10:45.133Z,9.80
2018-12-23T08:13:12.685Z,9.23
2018-12-23T08:15:40.242Z,10.20
2018-12-23T08:18:07.800Z,9.03
2018-12-23T08:20:35.354Z,9.40
2018-12-23T08:23:02.904Z,9.23
2018-12-23T08:25:35.602Z,8.83
2018-12-23T08:28:00.036Z,9.60
2018-12-23T08:30:27.599Z,8.17
2018-12-23T08:32:55.153Z,9.53
2018-12-23T08:35:23.021Z,10.40
2018-12-23T08:37:50.592Z,10.27
2018-12-23T08:40:18.140Z,9.17
2018-12-23T08:42:45.700Z,8.60
2018-12-23T08:45:13.257Z,9.87
2018-12-23T08:47:40.816Z,9.63
2018-12-23T08:50:08.900Z,9.23
2018-12-23T08:52:36.455Z,9.90
2018-12-23T08:55:04.024Z,10.87
2018-12-23T08:57:31.592Z,9.93
2018-12-23T08:59:59.140Z,9.93
2018-12-23T09:02:26.696Z,9.77
2018-12-23T09:04:54.252Z,9.50
2018-12-23T09:07:21.819Z,11.07
2018-12-23T09:09:49.364Z,9.13
2018-12-23T09:12:16.910Z,9.67
2018-12-23T09:14:44.464Z,10.83
2018-12-23T09:17:12.119Z,10.17
2018-12-23T09:19:39.677Z,9.67
2018-12-23T09:22:07.245Z,9.43
2018-12-23T09:24:34.804Z,8.97
2018-12-23T09:27:02.363Z,10.07
2018-12-23T09:29:30.489Z,10.60
2018-12-23T09:31:58.441Z,9.53
2018-12-23T09:34:25.997Z,9.87
2018-12-23T09:36:53.552Z,11.37
2018-12-23T09:39:21.100Z,14.73
2018-12-23T09:41:48.662Z,10.70
2018-12-23T09:44:16.226Z,11.77
2018-12-23T09:46:44.324Z,11.50
2018-12-23T09:49:11.872Z,11.77
2018-12-23T09:51:39.424Z,12.60
2018-12-23T09:54:06.975Z,11.40
2018-12-23T09:56:34.547Z,12.63
2018-12-23T09:59:02.151Z,12.43
2018-12-23T10:01:29.707Z,13.07
2018-12-23T10:03:57.542Z,13.73
2018-12-23T10:06:25.110Z,13.77
2018-12-23T10:08:52.669Z,15.43
2018-12-23T10:11:20.226Z,17.40
2018-12-23T10:13:47.781Z,16.80
2018-12-23T10:16:15.345Z,18.70
2018-12-23T10:18:43.271Z,18.70
2018-12-23T10:21:10.891Z,19.13
2018-12-23T10:23:38.458Z,19.70
2018-12-23T10:26:06.018Z,20.47
2018-12-23T10:28:33.574Z,19.70
2018-12-23T10:31:01.128Z,19.63
2018-12-23T10:33:28.687Z,25.85
2018-12-23T10:35:56.246Z,22.57
2018-12-23T10:38:23.815Z,19.50
2018-12-23T10:40:51.375Z,21.27
2018-12-23T10:43:18.925Z,20.30
2018-12-23T10:45:46.489Z,20.77
2018-12-23T10:48:14.045Z,19.60
2018-12-23T10:50:41.595Z,20.63
2018-12-23T10:53:09.166Z,20.60
2018-12-23T10:55:36.724Z,19.90
2018-12-23T10:58:04.950Z,19.17
2018-12-23T11:00:32.517Z,17.83
2018-12-23T11:03:00.069Z,16.20
2018-12-23T11:05:27.628Z,16.43
2018-12-23T11:07:55.189Z,16.07
2018-12-23T11:10:22.764Z,17.27
2018-12-23T11:12:50.336Z,17.60
2018-12-23T11:15:17.897Z,18.90
2018-12-23T11:17:45.455Z,16.63
2018-12-23T11:20:13.085Z,13.07
2018-12-23T11:22:40.643Z,13.07
2018-12-23T11:25:08.205Z,11.20
2018-12-23T11:27:35.760Z,11.30
2018-12-23T11:30:04.318Z,11.63
2018-12-23T11:32:31.998Z,11.57
2018-12-23T11:34:59.636Z,10.20
2018-12-23T11:37:27.182Z,11.07
2018-12-23T11:39:54.756Z,10.20
2018-12-23T11:42:22.319Z,8.90
2018-12-23T11:44:49.872Z,8.67
2018-12-23T11:47:17.427Z,8.97
2018-12-23T11:49:44.990Z,8.60
2018-12-23T11:52:12.546Z,8.27
2018-12-23T11:54:40.100Z,8.03
2018-12-23T11:57:07.644Z,8.60
2018-12-23T11:59:35.191Z,8.57
2018-12-23T12:02:02.801Z,9.17
2018-12-23T12:04:30.377Z,9.63
2018-12-23T12:06:57.935Z,8.17
2018-12-23T12:09:25.491Z,6.87
2018-12-23T12:11:53.920Z,7.17
2018-12-23T12:14:21.469Z,7.73
2018-12-23T12:16:49.027Z,5.57
2018-12-23T12:19:16.606Z,5.87
2018-12-23T12:21:44.165Z,4.73
2018-12-23T12:24:11.731Z,4.47
2018-12-23T12:26:39.277Z,4.37
2018-12-23T12:29:06.836Z,4.53
2018-12-23T12:31:34.388Z,5.33
2018-12-23T12:34:01.943Z,4.23
2018-12-23T12:36:29.500Z,4.77
2018-12-23T12:38:57.058Z,4.83
2018-12-23T12:41:24.620Z,4.57
2018-12-23T12:43:52.163Z,5.20
2018-12-23T12:46:20.025Z,5.97
2018-12-23T12:48:47.579Z,6.47
2018-12-23T12:51:15.137Z,6.10
2018-12-23T12:53:42.799Z,5.57
2018-12-23T12:56:10.357Z,5.60
2018-12-23T12:58:37.916Z,5.37
2018-12-23T13:01:05.472Z,6.00
2018-12-23T13:03:33.036Z,5.20
2018-12-23T13:06:00.600Z,5.07
2018-12-23T13:08:28.735Z,4.50
2018-12-23T13:10:56.289Z,4.43
2018-12-23T13:13:23.925Z,4.37
2018-12-23T13:15:51.816Z,3.87
2018-12-23T13:18:19.367Z,4.37
2018-12-23T13:20:46.927Z,5.57
2018-12-23T13:23:14.503Z,4.13
2018-12-23T13:25:42.062Z,4.40
2018-12-23T13:28:09.612Z,5.00
2018-12-23T13:30:37.163Z,5.50
2018-12-23T13:33:04.711Z,5.13
2018-12-23T13:35:32.267Z,5.93
2018-12-23T13:37:59.872Z,5.70
2018-12-23T13:40:44.289Z,5.93
2018-12-23T13:43:14.688Z,5.83
2018-12-23T13:45:49.874Z,7.10
2018-12-23T13:48:20.213Z,7.87
2018-12-23T13:50:49.756Z,7.83
2018-12-23T13:53:20.200Z,7.57
2018-12-23T13:55:51.519Z,8.57
2018-12-23T13:58:35.948Z,9.13
2018-12-23T14:01:07.172Z,10.03
2018-12-23T14:07:29.334Z,9.87
2018-12-23T20:08:45.697Z,9.60
2018-12-23T21:23:20.271Z,2.03
2018-12-23T21:26:07.626Z,1.87
2018-12-23T21:28:52.698Z,2.10
2018-12-23T21:31:22.572Z,1.67
2018-12-23T21:34:01.499Z,1.83
2018-12-23T21:36:34.035Z,1.73
2018-12-23T21:39:18.877Z,1.80
2018-12-23T21:42:06.829Z,1.90
2018-12-23T21:44:36.861Z,2.50
2018-12-23T21:47:06.734Z,2.30
2018-12-23T21:49:36.612Z,2.07
2018-12-23T21:52:12.229Z,1.70
2018-12-23T21:54:42.102Z,1.53
2018-12-23T21:57:14.945Z,1.17
2018-12-23T21:59:44.853Z,0.90
2018-12-23T22:02:31.445Z,1.00
2018-12-23T22:05:01.749Z,0.90
2018-12-23T22:07:48.549Z,0.80
2018-12-23T22:10:36.718Z,0.97
2018-12-23T22:13:09.514Z,0.73
2018-12-23T22:15:37.766Z,0.97
2018-12-23T22:18:06.438Z,1.10
2018-12-23T22:20:36.069Z,0.80
2018-12-23T22:23:04.285Z,0.70
2018-12-23T22:25:32.585Z,0.83
2018-12-23T22:28:00.833Z,0.70
2018-12-23T22:30:29.082Z,0.70
2018-12-23T22:32:59.303Z,0.60
2018-12-23T22:35:27.256Z,0.77
2018-12-23T22:37:55.497Z,0.90
2018-12-23T22:40:23.782Z,0.70
2018-12-23T22:42:52.032Z,1.03
2018-12-23T22:45:20.278Z,0.80
2018-12-23T22:47:48.547Z,1.07
2018-12-23T22:50:16.795Z,1.20
2018-12-23T22:52:45.055Z,0.80
2018-12-23T22:55:13.317Z,0.90
2018-12-23T22:57:41.878Z,0.80
2018-12-23T23:00:13.228Z,1.10
2018-12-23T23:02:41.513Z,0.73
2018-12-23T23:05:09.762Z,0.80
2018-12-23T23:07:38.001Z,0.87
2018-12-23T23:10:09.221Z,0.90
2018-12-23T23:12:37.465Z,0.80
2018-12-23T23:15:05.716Z,0.80
2018-12-23T23:17:33.986Z,1.07
2018-12-23T23:20:02.239Z,0.73
2018-12-23T23:22:30.482Z,1.13
2018-12-23T23:24:58.760Z,0.70
2018-12-23T23:27:27.034Z,0.67
2018-12-23T23:29:55.278Z,1.27
2018-12-23T23:32:23.810Z,0.80
2018-12-23T23:34:52.063Z,0.80
2018-12-23T23:37:20.309Z,1.20
2018-12-23T23:39:48.589Z,0.93
2018-12-23T23:42:16.830Z,0.90
2018-12-23T23:44:45.093Z,1.20
2018-12-23T23:47:13.937Z,1.40
2018-12-23T23:49:42.185Z,0.60
2018-12-23T23:52:10.437Z,1.20
2018-12-23T23:54:38.724Z,0.90
2018-12-23T23:57:06.971Z,1.47
2018-12-23T23:59:35.213Z,1.30
